Taylor, WI (54659)

7:57 AM CST on February 25, 2017 (GMT -0600)
Black River Falls Area | | Change Station
Active Advisory: Special Statement Active Notice: Public Information Statement

Elev 837 ft 44.25 °N, 90.86 °W | Updated 22 minutes ago

Clear
Clear
13 °F
Feels Like -1 °F
N
13
Wind Variable Wind from NE
Gusts 17 mph

Today
High -- | Low -- °F
--% Chance of Precip.
Yesterday
High -- | Low -- °F
Precip. -- in
Pressure 29.83 in
Visibility 10.0 miles
Clouds Clear
Windchill -1 °F
Dew Point 5 °F
Humidity 69%
Rainfall 0.00 in
Snow Depth Not available.
6:47 AM 5:47 PM
Waning Crescent, 1% visible
METAR KBCK 251335Z AUTO 05011G15KT 10SM CLR M10/M15 A2983 RMK AO2 T11051152
Pressure 29.83 in
Visibility 10.0 miles
Clouds Clear
Windchill -1 °F
Dew Point 5 °F
Humidity 69%
Rainfall 0.00 in
Snow Depth Not available.
6:47 AM 5:47 PM
Waning Crescent, 1% visible
METAR KBCK 251335Z AUTO 05011G15KT 10SM CLR M10/M15 A2983 RMK AO2 T11051152

Get Your Daily Forecast Email!

Thanks for signing up!

Be on the lookout for a verification email in your inbox.

You'll start receiving the daily forecast at 8 AM.

×

10-Day Weather Forecast

Almanac

Astronomy

Feb. 25, 2017 Rise Set
Actual Time
Civil Twilight
Nautical Twilight
Astronomical Twilight
Moon
Length of Visible Light
Length of Day
Tomorrow will be .
, % of the Moon is Illuminated

Today's Extremes

State Highs State Lows

Community

WunderPhotos

Upload Photos

1,962,540 photos uploaded!

WunderBlog® & News

Nearby

Air Quality

  Air Quality AQ Index Pollutant
Not available.

Snow Depth

Station Depth Elevation

Earthquake Activity

City Distance Mag. Time & Date
Minimum magnitude displayed is 2.5.

Coastal Water Temperatures

Place Temperature

Stations

Nearby Weather Stations

Station Location Temp. Windchill Dew Point Humidity Wind Precip. Elev Updated Type
                   

Watches & Warnings

Special Statement
Issued: 6:41 AM CST Feb. 25, 2017 – National Weather Service

... Areas of drifting snow and slick roads this morning...

Although the snow has ended, many roads are reported to be snow-
covered or icy this morning. In addition, gusty northwest winds
will lead to some drifting of snow, especially in open areas or
along ridge tops. Motorists are urged to exercise caution this
morning and be prepared for icy or snow-covered roads.


Jam


641 am CST Sat Feb 25 2017

... Areas of drifting snow and slick roads this morning...

Although the snow has ended, many roads are reported to be snow-
covered or icy this morning. In addition, gusty northwest winds
will lead to some drifting of snow, especially in open areas or
along ridge tops. Motorists are urged to exercise caution this
morning and be prepared for icy or snow-covered roads.


Jam